Gilkey, North Carolina
Current Conditions -  °F | °C
As of 11:35 AM on Thursday 29 Jan 2015 (Local Time) from KFQD Reporting Station
Clear Clear  
Wind Chill: 34°   Ceiling: Unl
Heat Index: 40°   Visibility: 10mi
Dew Point: 23°   Wind: 10mph
Humidity: 51%   Direction: 190°S
Pressure: 30.24"   Gusts: NA
Location:  35.3722°N, 82.0134°W
Report Text: KFQD 291635Z AUTO 19009KT 10SM CLR 05/M05 A3024 RMK AO2 T00471048
Loading
Personal Weather Stations






























Interactive Weather Map New forecast layout! Learn more

10-Day Weather Forecast

Advertisements
Track Severe Weather on mobile